EZY575B EGPH-EGAC
Flight info
| Callsign | EZY575B |
|---|---|
| Flight time | 0h 31m |
| Altitude | 18000 |
| Route | GOSAM P600 BLACA DCT MAGEE |
| Aircraft | A319/M-SDE2E3FGIJ1RWXYZ/LB1 |
Departure
| Time | 2026-04-17 10:21 |
|---|---|
| Airport | Edinburgh Airport (EGPH) |
Arrival
| Time | 2026-04-17 10:53 |
|---|---|
| Airport | George Best Belfast City Airport (EGAC) |
| Time | Latitude | Longitude | Altitude | Speed | Heading |
|---|---|---|---|---|---|
| 2026-04-17 09:52 | 55.94801 | -3.36625 | 114 ft | 0 kts | 89° |
| 2026-04-17 10:01 | 55.94801 | -3.36636 | 115 ft | 0 kts | 89° |
| 2026-04-17 10:02 | 55.94796 | -3.36618 | 114 ft | 0 kts | 117° |
| 2026-04-17 10:12 | 55.94802 | -3.36639 | 116 ft | 4 kts | 116° |
| 2026-04-17 10:12 | 55.94814 | -3.36680 | 116 ft | 4 kts | 116° |
| 2026-04-17 10:13 | 55.94821 | -3.36724 | 116 ft | 4 kts | 78° |
| 2026-04-17 10:13 | 55.94810 | -3.36761 | 113 ft | 4 kts | 34° |
| 2026-04-17 10:13 | 55.94787 | -3.36777 | 115 ft | 2 kts | 0° |
| 2026-04-17 10:13 | 55.94786 | -3.36777 | 116 ft | 0 kts | 359° |
| 2026-04-17 10:15 | 55.94792 | -3.36777 | 115 ft | 2 kts | 359° |
| 2026-04-17 10:15 | 55.94809 | -3.36777 | 116 ft | 3 kts | 359° |
| 2026-04-17 10:15 | 55.94826 | -3.36778 | 113 ft | 4 kts | 359° |
| 2026-04-17 10:15 | 55.94856 | -3.36778 | 116 ft | 5 kts | 359° |
| 2026-04-17 10:16 | 55.94889 | -3.36803 | 116 ft | 6 kts | 333° |
| 2026-04-17 10:16 | 55.94929 | -3.36820 | 114 ft | 6 kts | 13° |
| 2026-04-17 10:16 | 55.94967 | -3.36777 | 115 ft | 7 kts | 54° |
| 2026-04-17 10:16 | 55.94993 | -3.36697 | 113 ft | 8 kts | 60° |
| 2026-04-17 10:17 | 55.95021 | -3.36609 | 115 ft | 9 kts | 60° |
| 2026-04-17 10:17 | 55.95054 | -3.36511 | 114 ft | 10 kts | 57° |
| 2026-04-17 10:17 | 55.95092 | -3.36405 | 116 ft | 11 kts | 58° |
| 2026-04-17 10:17 | 55.95133 | -3.36288 | 115 ft | 12 kts | 58° |
| 2026-04-17 10:18 | 55.95175 | -3.36159 | 116 ft | 12 kts | 59° |
| 2026-04-17 10:18 | 55.95222 | -3.36022 | 113 ft | 13 kts | 59° |
| 2026-04-17 10:18 | 55.95271 | -3.35875 | 113 ft | 14 kts | 59° |
| 2026-04-17 10:18 | 55.95324 | -3.35720 | 113 ft | 15 kts | 59° |
| 2026-04-17 10:19 | 55.95379 | -3.35556 | 116 ft | 15 kts | 59° |
| 2026-04-17 10:19 | 55.95421 | -3.35436 | 114 ft | 7 kts | 57° |
| 2026-04-17 10:19 | 55.95445 | -3.35403 | 116 ft | 1 kts | 24° |
| 2026-04-17 10:19 | 55.95456 | -3.35401 | 116 ft | 3 kts | 8° |
| 2026-04-17 10:20 | 55.95480 | -3.35421 | 116 ft | 5 kts | 335° |
| 2026-04-17 10:20 | 55.95523 | -3.35465 | 113 ft | 9 kts | 329° |
| 2026-04-17 10:20 | 55.95564 | -3.35573 | 113 ft | 13 kts | 261° |
| 2026-04-17 10:20 | 55.95518 | -3.35724 | 113 ft | 15 kts | 238° |
| 2026-04-17 10:21 | 55.95365 | -3.36172 | 109 ft | 82 kts | 239° |
| 2026-04-17 10:21 | 55.94943 | -3.37415 | 117 ft | 148 kts | 237° |
| 2026-04-17 10:21 | 55.94391 | -3.39036 | 675 ft | 154 kts | 236° |
| 2026-04-17 10:21 | 55.93826 | -3.40681 | 1318 ft | 163 kts | 234° |
| 2026-04-17 10:22 | 55.93186 | -3.42514 | 1749 ft | 185 kts | 235° |
| 2026-04-17 10:22 | 55.92468 | -3.44575 | 2159 ft | 207 kts | 235° |
| 2026-04-17 10:22 | 55.91673 | -3.46866 | 2650 ft | 229 kts | 234° |
| 2026-04-17 10:22 | 55.90835 | -3.49303 | 3740 ft | 222 kts | 236° |
| 2026-04-17 10:23 | 55.90347 | -3.51820 | 5124 ft | 212 kts | 254° |
| 2026-04-17 10:23 | 55.90097 | -3.54347 | 6280 ft | 203 kts | 253° |
| 2026-04-17 10:23 | 55.89857 | -3.56788 | 7363 ft | 197 kts | 253° |
| 2026-04-17 10:23 | 55.89619 | -3.59188 | 8273 ft | 198 kts | 254° |
| 2026-04-17 10:24 | 55.89375 | -3.61617 | 9082 ft | 201 kts | 254° |
| 2026-04-17 10:24 | 55.89127 | -3.64097 | 9893 ft | 205 kts | 254° |
| 2026-04-17 10:24 | 55.88876 | -3.66627 | 10685 ft | 209 kts | 254° |
| 2026-04-17 10:24 | 55.88618 | -3.69197 | 11451 ft | 212 kts | 253° |
| 2026-04-17 10:25 | 55.88353 | -3.71809 | 12192 ft | 217 kts | 253° |
| 2026-04-17 10:25 | 55.88082 | -3.74467 | 12926 ft | 221 kts | 253° |
| 2026-04-17 10:25 | 55.87805 | -3.77185 | 13672 ft | 224 kts | 252° |
| 2026-04-17 10:25 | 55.87526 | -3.79936 | 14426 ft | 227 kts | 252° |
| 2026-04-17 10:26 | 55.87249 | -3.82721 | 15166 ft | 230 kts | 252° |
| 2026-04-17 10:26 | 55.86972 | -3.85537 | 15888 ft | 232 kts | 252° |
| 2026-04-17 10:26 | 55.86693 | -3.88393 | 16597 ft | 235 kts | 252° |
| 2026-04-17 10:26 | 55.86408 | -3.91281 | 17295 ft | 238 kts | 252° |
| 2026-04-17 10:27 | 55.86108 | -3.94234 | 17760 ft | 252 kts | 252° |
| 2026-04-17 10:27 | 55.85765 | -3.97464 | 17861 ft | 280 kts | 252° |
| 2026-04-17 10:27 | 55.85386 | -4.01030 | 17875 ft | 302 kts | 253° |
| 2026-04-17 10:27 | 55.85007 | -4.04752 | 17870 ft | 309 kts | 253° |
| 2026-04-17 10:28 | 55.84633 | -4.08465 | 17868 ft | 309 kts | 252° |
| 2026-04-17 10:28 | 55.83930 | -4.12022 | 17869 ft | 301 kts | 237° |
| 2026-04-17 10:28 | 55.82730 | -4.15012 | 17871 ft | 295 kts | 222° |
| 2026-04-17 10:28 | 55.81145 | -4.17285 | 17869 ft | 292 kts | 212° |
| 2026-04-17 10:29 | 55.79461 | -4.19318 | 17868 ft | 293 kts | 212° |
| 2026-04-17 10:29 | 55.77782 | -4.21364 | 17870 ft | 293 kts | 213° |
| 2026-04-17 10:29 | 55.76113 | -4.23430 | 17869 ft | 292 kts | 213° |
| 2026-04-17 10:29 | 55.74453 | -4.25501 | 17869 ft | 292 kts | 213° |
| 2026-04-17 10:30 | 55.72797 | -4.27571 | 17869 ft | 291 kts | 213° |
| 2026-04-17 10:30 | 55.71136 | -4.29640 | 17870 ft | 291 kts | 213° |
| 2026-04-17 10:30 | 55.69478 | -4.31702 | 17869 ft | 291 kts | 213° |
| 2026-04-17 10:30 | 55.67817 | -4.33761 | 17871 ft | 291 kts | 213° |
| 2026-04-17 10:31 | 55.66154 | -4.35819 | 17874 ft | 292 kts | 213° |
| 2026-04-17 10:31 | 55.64492 | -4.37879 | 17875 ft | 292 kts | 213° |
| 2026-04-17 10:31 | 55.62830 | -4.39934 | 17876 ft | 292 kts | 213° |
| 2026-04-17 10:31 | 55.61162 | -4.41991 | 17879 ft | 292 kts | 213° |
| 2026-04-17 10:32 | 55.59502 | -4.44043 | 17880 ft | 291 kts | 213° |
| 2026-04-17 10:32 | 55.57839 | -4.46093 | 17882 ft | 291 kts | 213° |
| 2026-04-17 10:32 | 55.56180 | -4.48132 | 17881 ft | 291 kts | 213° |
| 2026-04-17 10:32 | 55.54520 | -4.50168 | 17881 ft | 291 kts | 213° |
| 2026-04-17 10:33 | 55.52859 | -4.52204 | 17880 ft | 290 kts | 213° |
| 2026-04-17 10:33 | 55.51199 | -4.54231 | 17882 ft | 290 kts | 213° |
| 2026-04-17 10:33 | 55.49539 | -4.56255 | 17884 ft | 290 kts | 213° |
| 2026-04-17 10:33 | 55.47880 | -4.58279 | 17883 ft | 289 kts | 213° |
| 2026-04-17 10:34 | 55.46225 | -4.60299 | 17883 ft | 289 kts | 213° |
| 2026-04-17 10:34 | 55.44572 | -4.62315 | 17880 ft | 289 kts | 213° |
| 2026-04-17 10:34 | 55.42921 | -4.64325 | 17878 ft | 289 kts | 213° |
| 2026-04-17 10:34 | 55.41268 | -4.66336 | 17879 ft | 289 kts | 213° |
| 2026-04-17 10:35 | 55.39614 | -4.68349 | 17879 ft | 289 kts | 213° |
| 2026-04-17 10:35 | 55.37962 | -4.70357 | 17879 ft | 289 kts | 213° |
| 2026-04-17 10:35 | 55.36315 | -4.72355 | 17880 ft | 289 kts | 213° |
| 2026-04-17 10:35 | 55.34656 | -4.74363 | 17880 ft | 289 kts | 213° |
| 2026-04-17 10:36 | 55.33007 | -4.76362 | 17878 ft | 288 kts | 213° |
| 2026-04-17 10:36 | 55.31372 | -4.78312 | 17853 ft | 287 kts | 211° |
| 2026-04-17 10:36 | 55.29627 | -4.79940 | 17595 ft | 281 kts | 206° |
| 2026-04-17 10:36 | 55.27889 | -4.81462 | 17343 ft | 278 kts | 206° |
| 2026-04-17 10:37 | 55.26159 | -4.82974 | 17094 ft | 277 kts | 206° |
| 2026-04-17 10:37 | 55.24434 | -4.84479 | 16842 ft | 276 kts | 206° |
| 2026-04-17 10:37 | 55.22721 | -4.85974 | 16590 ft | 273 kts | 206° |
| 2026-04-17 10:37 | 55.21031 | -4.87451 | 16274 ft | 270 kts | 206° |
| 2026-04-17 10:38 | 55.19357 | -4.88916 | 15923 ft | 268 kts | 206° |
| 2026-04-17 10:38 | 55.17691 | -4.90373 | 15567 ft | 267 kts | 206° |
| 2026-04-17 10:38 | 55.16028 | -4.91825 | 15199 ft | 267 kts | 206° |
| 2026-04-17 10:38 | 55.14372 | -4.93274 | 14844 ft | 266 kts | 206° |
| 2026-04-17 10:39 | 55.12723 | -4.94717 | 14484 ft | 265 kts | 206° |
| 2026-04-17 10:39 | 55.11072 | -4.96160 | 14125 ft | 265 kts | 206° |
| 2026-04-17 10:39 | 55.09426 | -4.97600 | 13770 ft | 264 kts | 206° |
| 2026-04-17 10:39 | 55.07787 | -4.99035 | 13409 ft | 263 kts | 206° |
| 2026-04-17 10:40 | 55.06156 | -5.00458 | 13050 ft | 262 kts | 206° |
| 2026-04-17 10:40 | 55.04531 | -5.01873 | 12696 ft | 260 kts | 206° |
| 2026-04-17 10:40 | 55.02918 | -5.03276 | 12340 ft | 259 kts | 206° |
| 2026-04-17 10:40 | 55.01308 | -5.04674 | 11985 ft | 258 kts | 206° |
| 2026-04-17 10:41 | 54.99698 | -5.06069 | 11610 ft | 258 kts | 206° |
| 2026-04-17 10:41 | 54.98095 | -5.07455 | 11245 ft | 256 kts | 206° |
| 2026-04-17 10:41 | 54.96499 | -5.08830 | 10877 ft | 255 kts | 206° |
| 2026-04-17 10:41 | 54.94909 | -5.10201 | 10502 ft | 255 kts | 206° |
| 2026-04-17 10:42 | 54.93322 | -5.11570 | 10127 ft | 254 kts | 207° |
| 2026-04-17 10:42 | 54.91751 | -5.12926 | 9753 ft | 252 kts | 207° |
| 2026-04-17 10:42 | 54.90187 | -5.14288 | 9361 ft | 251 kts | 208° |
| 2026-04-17 10:42 | 54.88804 | -5.16112 | 8987 ft | 251 kts | 225° |
| 2026-04-17 10:43 | 54.87811 | -5.18605 | 8585 ft | 253 kts | 241° |
| 2026-04-17 10:43 | 54.87202 | -5.21477 | 8183 ft | 253 kts | 247° |
| 2026-04-17 10:43 | 54.86627 | -5.24357 | 7769 ft | 252 kts | 246° |
| 2026-04-17 10:43 | 54.86044 | -5.27229 | 7366 ft | 251 kts | 246° |
| 2026-04-17 10:44 | 54.85467 | -5.30057 | 7056 ft | 246 kts | 246° |
| 2026-04-17 10:44 | 54.84897 | -5.32845 | 6668 ft | 245 kts | 246° |
| 2026-04-17 10:44 | 54.84342 | -5.35568 | 6263 ft | 244 kts | 246° |
| 2026-04-17 10:44 | 54.83775 | -5.38348 | 5837 ft | 243 kts | 246° |
| 2026-04-17 10:45 | 54.83212 | -5.41107 | 5411 ft | 242 kts | 246° |
| 2026-04-17 10:45 | 54.82649 | -5.43857 | 4993 ft | 241 kts | 246° |
| 2026-04-17 10:45 | 54.82091 | -5.46593 | 4566 ft | 240 kts | 246° |
| 2026-04-17 10:45 | 54.81532 | -5.49314 | 4152 ft | 239 kts | 246° |
| 2026-04-17 10:46 | 54.80987 | -5.51947 | 4069 ft | 224 kts | 245° |
| 2026-04-17 10:46 | 54.80489 | -5.54372 | 4004 ft | 210 kts | 245° |
| 2026-04-17 10:46 | 54.80015 | -5.56686 | 3924 ft | 197 kts | 245° |
| 2026-04-17 10:46 | 54.79564 | -5.58884 | 3840 ft | 191 kts | 245° |
| 2026-04-17 10:47 | 54.79096 | -5.61020 | 3764 ft | 187 kts | 238° |
| 2026-04-17 10:47 | 54.78459 | -5.62972 | 3673 ft | 186 kts | 235° |
| 2026-04-17 10:47 | 54.77818 | -5.64922 | 3591 ft | 186 kts | 236° |
| 2026-04-17 10:47 | 54.77175 | -5.66877 | 3523 ft | 187 kts | 236° |
| 2026-04-17 10:48 | 54.76534 | -5.68827 | 3434 ft | 183 kts | 235° |
| 2026-04-17 10:48 | 54.75770 | -5.70460 | 3350 ft | 168 kts | 217° |
| 2026-04-17 10:48 | 54.74808 | -5.71636 | 3007 ft | 170 kts | 213° |
| 2026-04-17 10:48 | 54.73853 | -5.72786 | 2742 ft | 164 kts | 213° |
| 2026-04-17 10:49 | 54.72964 | -5.73858 | 2513 ft | 145 kts | 213° |
| 2026-04-17 10:49 | 54.72184 | -5.74797 | 2327 ft | 129 kts | 213° |
| 2026-04-17 10:49 | 54.71481 | -5.75643 | 2154 ft | 119 kts | 213° |
| 2026-04-17 10:49 | 54.70811 | -5.76448 | 2005 ft | 116 kts | 214° |
| 2026-04-17 10:50 | 54.70155 | -5.77238 | 1856 ft | 115 kts | 214° |
| 2026-04-17 10:50 | 54.69502 | -5.78023 | 1706 ft | 114 kts | 214° |
| 2026-04-17 10:50 | 54.68851 | -5.78804 | 1554 ft | 114 kts | 214° |
| 2026-04-17 10:50 | 54.68197 | -5.79590 | 1409 ft | 115 kts | 214° |
| 2026-04-17 10:51 | 54.67534 | -5.80387 | 1257 ft | 117 kts | 214° |
| 2026-04-17 10:51 | 54.66861 | -5.81194 | 1091 ft | 118 kts | 214° |
| 2026-04-17 10:51 | 54.66189 | -5.82002 | 934 ft | 118 kts | 214° |
| 2026-04-17 10:51 | 54.65519 | -5.82805 | 778 ft | 117 kts | 214° |
| 2026-04-17 10:52 | 54.64847 | -5.83611 | 622 ft | 118 kts | 214° |
| 2026-04-17 10:52 | 54.64170 | -5.84422 | 465 ft | 119 kts | 214° |
| 2026-04-17 10:52 | 54.63493 | -5.85234 | 312 ft | 118 kts | 214° |
| 2026-04-17 10:52 | 54.62817 | -5.86043 | 150 ft | 119 kts | 214° |
| 2026-04-17 10:53 | 54.62141 | -5.86854 | 27 ft | 110 kts | 215° |
| 2026-04-17 10:53 | 54.61685 | -5.87407 | 26 ft | 39 kts | 215° |
| 2026-04-17 10:53 | 54.61491 | -5.87639 | 21 ft | 33 kts | 213° |
| 2026-04-17 10:53 | 54.61315 | -5.87790 | 23 ft | 19 kts | 159° |
| 2026-04-17 10:54 | 54.61258 | -5.87662 | 26 ft | 10 kts | 111° |
| 2026-04-17 10:54 | 54.61283 | -5.87562 | 23 ft | 10 kts | 36° |
| 2026-04-17 10:54 | 54.61311 | -5.87527 | 23 ft | 4 kts | 36° |
| 2026-04-17 10:54 | 54.61335 | -5.87497 | 25 ft | 5 kts | 36° |
| 2026-04-17 10:55 | 54.61365 | -5.87459 | 23 ft | 6 kts | 36° |
| 2026-04-17 10:55 | 54.61394 | -5.87404 | 23 ft | 7 kts | 53° |
| 2026-04-17 10:55 | 54.61429 | -5.87345 | 23 ft | 7 kts | 37° |
| 2026-04-17 10:55 | 54.61453 | -5.87276 | 23 ft | 7 kts | 97° |
| 2026-04-17 10:56 | 54.61436 | -5.87224 | 23 ft | 3 kts | 124° |
| 2026-04-17 10:56 | 54.61433 | -5.87218 | 23 ft | 0 kts | 124° |